sensor_id;sensor_type;location;lat;lon;timestamp;P1;durP1;ratioP1;P2;durP2;ratioP2
8480;SDS011;4277;51.354;6.740;2024-03-29T00:00:43;2.27;;;0.80;;
8480;SDS011;4277;51.354;6.740;2024-03-29T00:03:09;1.63;;;0.73;;
8480;SDS011;4277;51.354;6.740;2024-03-29T00:05:36;2.27;;;0.87;;
8480;SDS011;4277;51.354;6.740;2024-03-29T00:08:05;4.13;;;0.90;;
8480;SDS011;4277;51.354;6.740;2024-03-29T00:10:31;3.67;;;1.00;;
8480;SDS011;4277;51.354;6.740;2024-03-29T00:12:57;1.87;;;0.80;;
8480;SDS011;4277;51.354;6.740;2024-03-29T00:15:23;1.70;;;0.97;;
8480;SDS011;4277;51.354;6.740;2024-03-29T00:17:49;1.90;;;0.70;;
8480;SDS011;4277;51.354;6.740;2024-03-29T00:20:15;4.23;;;0.87;;
8480;SDS011;4277;51.354;6.740;2024-03-29T00:22:41;2.73;;;1.07;;
8480;SDS011;4277;51.354;6.740;2024-03-29T00:25:07;2.27;;;0.90;;
8480;SDS011;4277;51.354;6.740;2024-03-29T00:27:34;1.67;;;0.97;;
8480;SDS011;4277;51.354;6.740;2024-03-29T00:30:01;3.83;;;1.10;;
8480;SDS011;4277;51.354;6.740;2024-03-29T00:32:27;2.80;;;1.10;;
8480;SDS011;4277;51.354;6.740;2024-03-29T00:34:52;2.67;;;0.90;;
8480;SDS011;4277;51.354;6.740;2024-03-29T00:37:19;4.43;;;1.53;;
8480;SDS011;4277;51.354;6.740;2024-03-29T00:39:45;3.20;;;0.90;;
8480;SDS011;4277;51.354;6.740;2024-03-29T00:42:11;3.20;;;0.93;;
8480;SDS011;4277;51.354;6.740;2024-03-29T00:44:40;2.23;;;0.70;;
8480;SDS011;4277;51.354;6.740;2024-03-29T00:47:06;3.23;;;1.00;;
8480;SDS011;4277;51.354;6.740;2024-03-29T00:49:32;1.47;;;0.70;;
8480;SDS011;4277;51.354;6.740;2024-03-29T00:51:58;3.07;;;1.00;;
8480;SDS011;4277;51.354;6.740;2024-03-29T00:54:24;2.70;;;0.77;;
8480;SDS011;4277;51.354;6.740;2024-03-29T00:56:51;2.10;;;0.80;;
8480;SDS011;4277;51.354;6.740;2024-03-29T00:59:17;1.40;;;0.90;;
8480;SDS011;4277;51.354;6.740;2024-03-29T01:01:43;4.27;;;0.90;;
8480;SDS011;4277;51.354;6.740;2024-03-29T01:04:09;4.07;;;1.10;;
8480;SDS011;4277;51.354;6.740;2024-03-29T01:06:35;2.07;;;1.07;;
8480;SDS011;4277;51.354;6.740;2024-03-29T01:09:01;6.13;;;1.10;;
8480;SDS011;4277;51.354;6.740;2024-03-29T01:11:28;2.87;;;1.03;;
8480;SDS011;4277;51.354;6.740;2024-03-29T01:13:54;3.87;;;1.20;;
8480;SDS011;4277;51.354;6.740;2024-03-29T01:16:20;2.90;;;1.00;;
8480;SDS011;4277;51.354;6.740;2024-03-29T01:18:45;2.07;;;1.10;;
8480;SDS011;4277;51.354;6.740;2024-03-29T01:21:12;3.57;;;1.10;;
8480;SDS011;4277;51.354;6.740;2024-03-29T01:23:38;2.20;;;0.90;;
8480;SDS011;4277;51.354;6.740;2024-03-29T01:26:04;2.93;;;1.00;;
8480;SDS011;4277;51.354;6.740;2024-03-29T01:28:30;1.57;;;1.00;;
8480;SDS011;4277;51.354;6.740;2024-03-29T01:30:56;1.83;;;0.87;;
8480;SDS011;4277;51.354;6.740;2024-03-29T01:33:23;3.80;;;0.80;;
8480;SDS011;4277;51.354;6.740;2024-03-29T01:35:49;3.53;;;1.03;;
8480;SDS011;4277;51.354;6.740;2024-03-29T01:38:15;2.47;;;0.83;;
8480;SDS011;4277;51.354;6.740;2024-03-29T01:40:41;2.63;;;0.90;;
8480;SDS011;4277;51.354;6.740;2024-03-29T01:43:07;2.03;;;0.73;;
8480;SDS011;4277;51.354;6.740;2024-03-29T01:45:39;2.03;;;0.87;;
8480;SDS011;4277;51.354;6.740;2024-03-29T01:48:05;1.53;;;0.60;;
8480;SDS011;4277;51.354;6.740;2024-03-29T01:50:32;1.60;;;0.70;;
8480;SDS011;4277;51.354;6.740;2024-03-29T01:52:59;3.53;;;0.97;;
8480;SDS011;4277;51.354;6.740;2024-03-29T01:55:25;1.90;;;0.70;;
8480;SDS011;4277;51.354;6.740;2024-03-29T01:57:51;1.43;;;0.57;;
8480;SDS011;4277;51.354;6.740;2024-03-29T02:00:18;2.53;;;0.40;;
8480;SDS011;4277;51.354;6.740;2024-03-29T02:02:44;2.43;;;0.80;;
8480;SDS011;4277;51.354;6.740;2024-03-29T02:05:10;1.80;;;0.70;;
8480;SDS011;4277;51.354;6.740;2024-03-29T02:07:36;2.87;;;0.80;;
8480;SDS011;4277;51.354;6.740;2024-03-29T02:10:02;2.80;;;0.60;;
8480;SDS011;4277;51.354;6.740;2024-03-29T02:12:28;4.30;;;1.03;;
8480;SDS011;4277;51.354;6.740;2024-03-29T02:14:54;1.60;;;0.50;;
8480;SDS011;4277;51.354;6.740;2024-03-29T02:17:20;1.57;;;0.60;;
8480;SDS011;4277;51.354;6.740;2024-03-29T02:19:46;1.10;;;0.60;;
8480;SDS011;4277;51.354;6.740;2024-03-29T02:22:13;2.47;;;0.90;;
8480;SDS011;4277;51.354;6.740;2024-03-29T02:24:41;1.97;;;0.83;;
8480;SDS011;4277;51.354;6.740;2024-03-29T02:27:07;1.80;;;0.80;;
8480;SDS011;4277;51.354;6.740;2024-03-29T02:29:35;1.50;;;0.70;;
8480;SDS011;4277;51.354;6.740;2024-03-29T02:32:02;2.90;;;0.70;;
8480;SDS011;4277;51.354;6.740;2024-03-29T02:34:28;1.90;;;0.77;;
8480;SDS011;4277;51.354;6.740;2024-03-29T02:36:54;1.77;;;0.67;;
8480;SDS011;4277;51.354;6.740;2024-03-29T02:39:22;2.73;;;0.70;;
8480;SDS011;4277;51.354;6.740;2024-03-29T02:41:47;2.07;;;0.70;;
8480;SDS011;4277;51.354;6.740;2024-03-29T02:44:13;1.93;;;0.80;;
8480;SDS011;4277;51.354;6.740;2024-03-29T02:46:41;2.00;;;1.03;;
8480;SDS011;4277;51.354;6.740;2024-03-29T02:49:07;1.97;;;0.57;;
8480;SDS011;4277;51.354;6.740;2024-03-29T02:51:33;1.13;;;0.60;;
8480;SDS011;4277;51.354;6.740;2024-03-29T02:53:59;3.17;;;0.90;;
8480;SDS011;4277;51.354;6.740;2024-03-29T02:56:24;1.37;;;0.70;;
8480;SDS011;4277;51.354;6.740;2024-03-29T02:58:52;2.40;;;0.90;;
8480;SDS011;4277;51.354;6.740;2024-03-29T03:01:17;3.40;;;1.00;;
8480;SDS011;4277;51.354;6.740;2024-03-29T03:03:43;2.23;;;0.73;;
8480;SDS011;4277;51.354;6.740;2024-03-29T03:06:09;1.60;;;0.60;;
8480;SDS011;4277;51.354;6.740;2024-03-29T03:08:35;2.87;;;0.93;;
8480;SDS011;4277;51.354;6.740;2024-03-29T03:11:20;2.47;;;1.10;;
8480;SDS011;4277;51.354;6.740;2024-03-29T03:13:46;2.00;;;0.83;;
8480;SDS011;4277;51.354;6.740;2024-03-29T03:16:12;2.90;;;0.83;;
8480;SDS011;4277;51.354;6.740;2024-03-29T03:18:38;2.30;;;1.07;;
8480;SDS011;4277;51.354;6.740;2024-03-29T03:21:04;1.53;;;0.90;;
8480;SDS011;4277;51.354;6.740;2024-03-29T03:23:30;0.40;;;0.40;;
8480;SDS011;4277;51.354;6.740;2024-03-29T03:25:57;1.77;;;0.90;;
8480;SDS011;4277;51.354;6.740;2024-03-29T03:28:23;2.00;;;0.90;;
8480;SDS011;4277;51.354;6.740;2024-03-29T03:30:49;3.90;;;0.87;;
8480;SDS011;4277;51.354;6.740;2024-03-29T03:33:15;3.20;;;0.80;;
8480;SDS011;4277;51.354;6.740;2024-03-29T03:35:41;2.70;;;0.90;;
8480;SDS011;4277;51.354;6.740;2024-03-29T03:38:07;2.07;;;1.00;;
8480;SDS011;4277;51.354;6.740;2024-03-29T03:40:34;2.60;;;0.73;;
8480;SDS011;4277;51.354;6.740;2024-03-29T03:43:01;4.27;;;0.80;;
8480;SDS011;4277;51.354;6.740;2024-03-29T03:45:27;3.13;;;1.07;;
8480;SDS011;4277;51.354;6.740;2024-03-29T03:47:53;1.70;;;0.70;;
8480;SDS011;4277;51.354;6.740;2024-03-29T03:50:19;1.67;;;0.90;;
8480;SDS011;4277;51.354;6.740;2024-03-29T03:52:45;3.07;;;0.67;;
8480;SDS011;4277;51.354;6.740;2024-03-29T03:55:11;2.43;;;0.80;;
8480;SDS011;4277;51.354;6.740;2024-03-29T03:57:37;1.73;;;0.90;;
8480;SDS011;4277;51.354;6.740;2024-03-29T04:00:03;1.43;;;0.70;;
8480;SDS011;4277;51.354;6.740;2024-03-29T04:02:29;1.30;;;0.70;;
8480;SDS011;4277;51.354;6.740;2024-03-29T04:04:55;2.97;;;0.97;;
8480;SDS011;4277;51.354;6.740;2024-03-29T04:07:21;1.33;;;0.57;;
8480;SDS011;4277;51.354;6.740;2024-03-29T04:09:50;2.67;;;0.90;;
8480;SDS011;4277;51.354;6.740;2024-03-29T04:12:16;0.60;;;0.50;;
8480;SDS011;4277;51.354;6.740;2024-03-29T04:14:42;2.13;;;0.90;;
8480;SDS011;4277;51.354;6.740;2024-03-29T04:17:08;1.70;;;0.73;;
8480;SDS011;4277;51.354;6.740;2024-03-29T04:19:34;2.70;;;1.13;;
8480;SDS011;4277;51.354;6.740;2024-03-29T04:22:00;2.43;;;0.90;;
8480;SDS011;4277;51.354;6.740;2024-03-29T04:24:27;3.60;;;0.83;;
8480;SDS011;4277;51.354;6.740;2024-03-29T04:26:53;2.53;;;0.80;;
8480;SDS011;4277;51.354;6.740;2024-03-29T04:29:19;2.80;;;0.73;;
8480;SDS011;4277;51.354;6.740;2024-03-29T04:31:45;2.63;;;0.80;;
8480;SDS011;4277;51.354;6.740;2024-03-29T04:34:11;3.27;;;1.13;;
8480;SDS011;4277;51.354;6.740;2024-03-29T04:36:37;1.97;;;0.90;;
8480;SDS011;4277;51.354;6.740;2024-03-29T04:39:03;1.83;;;1.03;;
8480;SDS011;4277;51.354;6.740;2024-03-29T04:41:29;1.37;;;0.80;;
8480;SDS011;4277;51.354;6.740;2024-03-29T04:43:59;2.97;;;0.90;;
8480;SDS011;4277;51.354;6.740;2024-03-29T04:46:25;2.23;;;0.80;;
8480;SDS011;4277;51.354;6.740;2024-03-29T04:48:51;3.83;;;1.27;;
8480;SDS011;4277;51.354;6.740;2024-03-29T04:51:17;2.23;;;1.23;;
8480;SDS011;4277;51.354;6.740;2024-03-29T04:53:43;2.63;;;0.80;;
8480;SDS011;4277;51.354;6.740;2024-03-29T04:56:09;2.73;;;0.90;;
8480;SDS011;4277;51.354;6.740;2024-03-29T04:58:35;3.73;;;0.87;;
8480;SDS011;4277;51.354;6.740;2024-03-29T05:01:00;2.13;;;0.90;;
8480;SDS011;4277;51.354;6.740;2024-03-29T05:03:26;1.57;;;0.70;;
8480;SDS011;4277;51.354;6.740;2024-03-29T05:05:52;2.20;;;0.90;;
8480;SDS011;4277;51.354;6.740;2024-03-29T05:08:19;1.87;;;0.80;;
8480;SDS011;4277;51.354;6.740;2024-03-29T05:10:47;1.50;;;0.80;;
8480;SDS011;4277;51.354;6.740;2024-03-29T05:13:13;2.60;;;1.07;;
8480;SDS011;4277;51.354;6.740;2024-03-29T05:15:39;2.47;;;0.93;;
8480;SDS011;4277;51.354;6.740;2024-03-29T05:18:05;2.50;;;0.80;;
8480;SDS011;4277;51.354;6.740;2024-03-29T05:20:31;3.30;;;1.20;;
8480;SDS011;4277;51.354;6.740;2024-03-29T05:23:00;1.80;;;0.83;;
8480;SDS011;4277;51.354;6.740;2024-03-29T05:25:26;4.70;;;1.20;;
8480;SDS011;4277;51.354;6.740;2024-03-29T05:27:52;1.53;;;0.90;;
8480;SDS011;4277;51.354;6.740;2024-03-29T05:30:18;3.30;;;1.13;;
8480;SDS011;4277;51.354;6.740;2024-03-29T05:32:44;1.50;;;0.90;;
8480;SDS011;4277;51.354;6.740;2024-03-29T05:35:10;3.03;;;0.90;;
8480;SDS011;4277;51.354;6.740;2024-03-29T05:37:36;1.83;;;0.73;;
8480;SDS011;4277;51.354;6.740;2024-03-29T05:40:03;1.83;;;0.83;;
8480;SDS011;4277;51.354;6.740;2024-03-29T05:42:31;3.67;;;1.00;;
8480;SDS011;4277;51.354;6.740;2024-03-29T05:45:02;4.23;;;1.00;;
8480;SDS011;4277;51.354;6.740;2024-03-29T05:47:28;2.43;;;1.00;;
8480;SDS011;4277;51.354;6.740;2024-03-29T05:49:54;1.57;;;0.87;;
8480;SDS011;4277;51.354;6.740;2024-03-29T05:52:20;1.97;;;0.90;;
8480;SDS011;4277;51.354;6.740;2024-03-29T05:54:48;3.27;;;1.20;;
8480;SDS011;4277;51.354;6.740;2024-03-29T05:57:14;3.53;;;1.00;;
8480;SDS011;4277;51.354;6.740;2024-03-29T05:59:40;2.27;;;1.00;;
8480;SDS011;4277;51.354;6.740;2024-03-29T06:02:06;2.53;;;1.03;;
8480;SDS011;4277;51.354;6.740;2024-03-29T06:04:32;3.40;;;1.03;;
8480;SDS011;4277;51.354;6.740;2024-03-29T06:06:59;3.10;;;1.10;;
8480;SDS011;4277;51.354;6.740;2024-03-29T06:09:25;2.77;;;1.00;;
8480;SDS011;4277;51.354;6.740;2024-03-29T06:11:51;2.87;;;0.87;;
8480;SDS011;4277;51.354;6.740;2024-03-29T06:14:17;1.20;;;0.70;;
8480;SDS011;4277;51.354;6.740;2024-03-29T06:17:02;1.23;;;0.90;;
8480;SDS011;4277;51.354;6.740;2024-03-29T06:19:47;1.97;;;1.10;;
8480;SDS011;4277;51.354;6.740;2024-03-29T06:22:13;3.47;;;1.23;;
8480;SDS011;4277;51.354;6.740;2024-03-29T06:24:39;3.60;;;0.87;;
8480;SDS011;4277;51.354;6.740;2024-03-29T06:27:08;2.20;;;0.70;;
8480;SDS011;4277;51.354;6.740;2024-03-29T06:29:34;3.07;;;1.00;;
8480;SDS011;4277;51.354;6.740;2024-03-29T06:32:00;1.73;;;0.97;;
8480;SDS011;4277;51.354;6.740;2024-03-29T06:34:26;3.27;;;1.20;;
8480;SDS011;4277;51.354;6.740;2024-03-29T06:36:54;2.40;;;1.47;;
8480;SDS011;4277;51.354;6.740;2024-03-29T06:39:20;2.23;;;1.00;;
8480;SDS011;4277;51.354;6.740;2024-03-29T06:41:46;3.80;;;1.33;;
8480;SDS011;4277;51.354;6.740;2024-03-29T06:44:12;3.20;;;1.10;;
8480;SDS011;4277;51.354;6.740;2024-03-29T06:46:38;2.80;;;1.23;;
8480;SDS011;4277;51.354;6.740;2024-03-29T06:49:04;2.90;;;1.10;;
8480;SDS011;4277;51.354;6.740;2024-03-29T06:51:31;3.60;;;1.20;;
8480;SDS011;4277;51.354;6.740;2024-03-29T06:53:57;2.50;;;1.30;;
8480;SDS011;4277;51.354;6.740;2024-03-29T06:56:22;1.17;;;1.00;;
8480;SDS011;4277;51.354;6.740;2024-03-29T06:58:48;3.63;;;1.10;;
8480;SDS011;4277;51.354;6.740;2024-03-29T07:01:15;2.87;;;1.10;;
8480;SDS011;4277;51.354;6.740;2024-03-29T07:03:41;5.00;;;1.50;;
8480;SDS011;4277;51.354;6.740;2024-03-29T07:06:07;3.70;;;1.33;;
8480;SDS011;4277;51.354;6.740;2024-03-29T07:08:33;3.10;;;1.40;;
8480;SDS011;4277;51.354;6.740;2024-03-29T07:10:59;3.23;;;1.33;;
8480;SDS011;4277;51.354;6.740;2024-03-29T07:13:27;2.53;;;1.30;;
8480;SDS011;4277;51.354;6.740;2024-03-29T07:15:53;2.33;;;1.20;;
8480;SDS011;4277;51.354;6.740;2024-03-29T07:18:19;3.37;;;1.30;;
8480;SDS011;4277;51.354;6.740;2024-03-29T07:20:45;3.47;;;1.30;;
8480;SDS011;4277;51.354;6.740;2024-03-29T07:23:11;3.47;;;1.60;;
8480;SDS011;4277;51.354;6.740;2024-03-29T07:25:37;2.47;;;1.30;;
8480;SDS011;4277;51.354;6.740;2024-03-29T07:28:03;2.87;;;1.30;;
8480;SDS011;4277;51.354;6.740;2024-03-29T07:30:29;1.77;;;1.40;;
8480;SDS011;4277;51.354;6.740;2024-03-29T07:32:55;2.13;;;1.30;;
8480;SDS011;4277;51.354;6.740;2024-03-29T07:35:21;3.10;;;1.40;;
8480;SDS011;4277;51.354;6.740;2024-03-29T07:37:47;3.40;;;1.43;;
8480;SDS011;4277;51.354;6.740;2024-03-29T07:40:15;3.13;;;1.37;;
8480;SDS011;4277;51.354;6.740;2024-03-29T07:42:41;2.10;;;1.23;;
8480;SDS011;4277;51.354;6.740;2024-03-29T07:45:07;2.53;;;1.30;;
8480;SDS011;4277;51.354;6.740;2024-03-29T07:47:33;2.33;;;1.30;;
8480;SDS011;4277;51.354;6.740;2024-03-29T07:49:59;2.40;;;1.30;;
8480;SDS011;4277;51.354;6.740;2024-03-29T07:52:25;2.70;;;1.47;;
8480;SDS011;4277;51.354;6.740;2024-03-29T07:54:51;3.23;;;1.40;;
8480;SDS011;4277;51.354;6.740;2024-03-29T07:57:17;2.73;;;1.20;;
8480;SDS011;4277;51.354;6.740;2024-03-29T07:59:43;2.23;;;1.13;;
8480;SDS011;4277;51.354;6.740;2024-03-29T08:02:09;3.03;;;1.50;;
8480;SDS011;4277;51.354;6.740;2024-03-29T08:04:35;3.10;;;1.20;;
8480;SDS011;4277;51.354;6.740;2024-03-29T08:07:01;3.60;;;1.23;;
8480;SDS011;4277;51.354;6.740;2024-03-29T08:09:27;3.33;;;1.10;;
8480;SDS011;4277;51.354;6.740;2024-03-29T08:11:53;1.93;;;1.30;;
8480;SDS011;4277;51.354;6.740;2024-03-29T08:14:19;1.97;;;1.30;;
8480;SDS011;4277;51.354;6.740;2024-03-29T08:16:44;2.60;;;1.20;;
8480;SDS011;4277;51.354;6.740;2024-03-29T08:19:10;1.60;;;1.17;;
8480;SDS011;4277;51.354;6.740;2024-03-29T08:21:36;4.33;;;1.50;;
8480;SDS011;4277;51.354;6.740;2024-03-29T08:24:02;4.33;;;1.30;;
8480;SDS011;4277;51.354;6.740;2024-03-29T08:26:29;1.83;;;1.27;;
8480;SDS011;4277;51.354;6.740;2024-03-29T08:28:55;2.30;;;1.30;;
8480;SDS011;4277;51.354;6.740;2024-03-29T08:31:21;2.97;;;1.57;;
8480;SDS011;4277;51.354;6.740;2024-03-29T08:33:47;3.93;;;1.40;;
8480;SDS011;4277;51.354;6.740;2024-03-29T08:36:14;4.70;;;1.47;;
8480;SDS011;4277;51.354;6.740;2024-03-29T08:38:40;4.63;;;1.50;;
8480;SDS011;4277;51.354;6.740;2024-03-29T08:41:08;3.27;;;1.33;;
8480;SDS011;4277;51.354;6.740;2024-03-29T08:43:34;3.43;;;1.57;;
8480;SDS011;4277;51.354;6.740;2024-03-29T08:46:00;1.87;;;1.37;;
8480;SDS011;4277;51.354;6.740;2024-03-29T08:48:26;4.50;;;2.00;;
8480;SDS011;4277;51.354;6.740;2024-03-29T08:50:53;3.20;;;1.63;;
8480;SDS011;4277;51.354;6.740;2024-03-29T08:53:19;5.47;;;1.93;;
8480;SDS011;4277;51.354;6.740;2024-03-29T08:55:46;4.37;;;1.80;;
8480;SDS011;4277;51.354;6.740;2024-03-29T08:58:16;2.67;;;1.53;;
8480;SDS011;4277;51.354;6.740;2024-03-29T09:00:43;2.63;;;1.50;;
8480;SDS011;4277;51.354;6.740;2024-03-29T09:03:09;3.13;;;1.40;;
8480;SDS011;4277;51.354;6.740;2024-03-29T09:05:35;3.40;;;1.80;;
8480;SDS011;4277;51.354;6.740;2024-03-29T09:08:01;3.43;;;1.73;;
8480;SDS011;4277;51.354;6.740;2024-03-29T09:10:27;3.63;;;1.90;;
8480;SDS011;4277;51.354;6.740;2024-03-29T09:12:53;3.07;;;1.60;;
8480;SDS011;4277;51.354;6.740;2024-03-29T09:15:19;1.87;;;1.40;;
8480;SDS011;4277;51.354;6.740;2024-03-29T09:17:45;3.17;;;1.60;;
8480;SDS011;4277;51.354;6.740;2024-03-29T09:20:11;2.53;;;1.57;;
8480;SDS011;4277;51.354;6.740;2024-03-29T09:22:37;3.03;;;1.83;;
8480;SDS011;4277;51.354;6.740;2024-03-29T09:25:04;1.90;;;1.43;;
8480;SDS011;4277;51.354;6.740;2024-03-29T09:27:31;2.80;;;1.63;;
8480;SDS011;4277;51.354;6.740;2024-03-29T09:29:59;4.87;;;1.80;;
8480;SDS011;4277;51.354;6.740;2024-03-29T09:32:25;2.67;;;1.70;;
8480;SDS011;4277;51.354;6.740;2024-03-29T09:34:51;3.40;;;1.60;;
8480;SDS011;4277;51.354;6.740;2024-03-29T09:37:17;2.20;;;1.63;;
8480;SDS011;4277;51.354;6.740;2024-03-29T09:39:43;3.73;;;1.70;;
8480;SDS011;4277;51.354;6.740;2024-03-29T09:42:09;3.77;;;2.00;;
8480;SDS011;4277;51.354;6.740;2024-03-29T09:44:39;2.30;;;2.00;;
8480;SDS011;4277;51.354;6.740;2024-03-29T09:47:07;4.23;;;1.80;;
8480;SDS011;4277;51.354;6.740;2024-03-29T09:49:33;1.73;;;1.40;;
8480;SDS011;4277;51.354;6.740;2024-03-29T09:52:00;2.93;;;1.60;;
8480;SDS011;4277;51.354;6.740;2024-03-29T09:54:29;3.10;;;1.50;;
8480;SDS011;4277;51.354;6.740;2024-03-29T09:56:55;2.77;;;1.20;;
8480;SDS011;4277;51.354;6.740;2024-03-29T09:59:22;2.13;;;1.60;;
8480;SDS011;4277;51.354;6.740;2024-03-29T10:01:48;2.73;;;1.60;;
8480;SDS011;4277;51.354;6.740;2024-03-29T10:04:16;3.47;;;1.50;;
8480;SDS011;4277;51.354;6.740;2024-03-29T10:06:44;1.73;;;1.40;;
8480;SDS011;4277;51.354;6.740;2024-03-29T10:09:11;2.83;;;1.27;;
8480;SDS011;4277;51.354;6.740;2024-03-29T10:11:38;3.87;;;1.43;;
8480;SDS011;4277;51.354;6.740;2024-03-29T10:14:03;3.30;;;1.30;;
8480;SDS011;4277;51.354;6.740;2024-03-29T10:16:30;1.43;;;1.10;;
8480;SDS011;4277;51.354;6.740;2024-03-29T10:18:59;2.07;;;1.20;;
8480;SDS011;4277;51.354;6.740;2024-03-29T10:21:25;2.43;;;1.33;;
8480;SDS011;4277;51.354;6.740;2024-03-29T10:23:52;2.30;;;1.40;;
8480;SDS011;4277;51.354;6.740;2024-03-29T10:26:18;1.87;;;1.20;;
8480;SDS011;4277;51.354;6.740;2024-03-29T10:28:45;2.63;;;1.20;;
8480;SDS011;4277;51.354;6.740;2024-03-29T10:31:12;1.17;;;1.00;;
8480;SDS011;4277;51.354;6.740;2024-03-29T10:33:39;1.63;;;0.97;;
8480;SDS011;4277;51.354;6.740;2024-03-29T10:36:07;1.80;;;1.00;;
8480;SDS011;4277;51.354;6.740;2024-03-29T10:38:34;1.10;;;0.80;;
8480;SDS011;4277;51.354;6.740;2024-03-29T10:41:04;2.07;;;1.17;;
8480;SDS011;4277;51.354;6.740;2024-03-29T10:43:31;1.97;;;1.27;;
8480;SDS011;4277;51.354;6.740;2024-03-29T10:45:58;2.03;;;1.27;;
8480;SDS011;4277;51.354;6.740;2024-03-29T10:48:25;1.00;;;0.93;;
8480;SDS011;4277;51.354;6.740;2024-03-29T10:50:53;1.73;;;1.00;;
8480;SDS011;4277;51.354;6.740;2024-03-29T10:53:19;1.30;;;0.77;;
8480;SDS011;4277;51.354;6.740;2024-03-29T10:55:45;2.43;;;1.00;;
8480;SDS011;4277;51.354;6.740;2024-03-29T10:58:12;1.20;;;0.80;;
8480;SDS011;4277;51.354;6.740;2024-03-29T11:00:46;2.03;;;0.90;;
8480;SDS011;4277;51.354;6.740;2024-03-29T11:05:52;1.90;;;0.90;;
8480;SDS011;4277;51.354;6.740;2024-03-29T11:08:20;1.70;;;0.73;;
8480;SDS011;4277;51.354;6.740;2024-03-29T11:10:49;2.03;;;0.93;;
8480;SDS011;4277;51.354;6.740;2024-03-29T11:15:41;2.33;;;0.60;;
8480;SDS011;4277;51.354;6.740;2024-03-29T11:18:10;1.90;;;0.70;;
8480;SDS011;4277;51.354;6.740;2024-03-29T11:20:37;1.57;;;0.50;;
8480;SDS011;4277;51.354;6.740;2024-03-29T11:23:07;0.93;;;0.60;;
8480;SDS011;4277;51.354;6.740;2024-03-29T11:26:17;1.30;;;0.80;;
8480;SDS011;4277;51.354;6.740;2024-03-29T11:28:28;1.20;;;0.60;;
8480;SDS011;4277;51.354;6.740;2024-03-29T11:30:56;1.93;;;0.70;;
8480;SDS011;4277;51.354;6.740;2024-03-29T11:33:28;1.43;;;0.70;;
8480;SDS011;4277;51.354;6.740;2024-03-29T11:35:54;1.80;;;0.50;;
8480;SDS011;4277;51.354;6.740;2024-03-29T11:38:20;2.37;;;0.70;;
8480;SDS011;4277;51.354;6.740;2024-03-29T11:41:00;0.83;;;0.50;;
8480;SDS011;4277;51.354;6.740;2024-03-29T11:43:26;1.57;;;0.70;;
8480;SDS011;4277;51.354;6.740;2024-03-29T11:45:53;1.10;;;0.80;;
8480;SDS011;4277;51.354;6.740;2024-03-29T11:48:22;2.20;;;0.43;;
8480;SDS011;4277;51.354;6.740;2024-03-29T11:50:51;1.13;;;0.60;;
8480;SDS011;4277;51.354;6.740;2024-03-29T11:53:17;1.00;;;0.60;;
8480;SDS011;4277;51.354;6.740;2024-03-29T11:55:43;1.30;;;0.50;;
8480;SDS011;4277;51.354;6.740;2024-03-29T11:58:09;0.97;;;0.60;;
8480;SDS011;4277;51.354;6.740;2024-03-29T12:00:35;1.43;;;0.50;;
8480;SDS011;4277;51.354;6.740;2024-03-29T12:03:03;1.37;;;0.57;;
8480;SDS011;4277;51.354;6.740;2024-03-29T12:05:29;0.87;;;0.40;;
8480;SDS011;4277;51.354;6.740;2024-03-29T12:07:56;0.50;;;0.50;;
8480;SDS011;4277;51.354;6.740;2024-03-29T12:10:26;1.10;;;0.80;;
8480;SDS011;4277;51.354;6.740;2024-03-29T12:12:52;1.13;;;0.50;;
8480;SDS011;4277;51.354;6.740;2024-03-29T12:15:22;1.43;;;0.50;;
8480;SDS011;4277;51.354;6.740;2024-03-29T12:17:58;3.00;;;0.57;;
8480;SDS011;4277;51.354;6.740;2024-03-29T12:20:24;0.80;;;0.40;;
8480;SDS011;4277;51.354;6.740;2024-03-29T12:22:50;2.20;;;0.60;;
8480;SDS011;4277;51.354;6.740;2024-03-29T12:25:17;1.50;;;0.50;;
8480;SDS011;4277;51.354;6.740;2024-03-29T12:27:43;3.20;;;0.40;;
8480;SDS011;4277;51.354;6.740;2024-03-29T12:30:11;1.20;;;0.47;;
8480;SDS011;4277;51.354;6.740;2024-03-29T12:32:38;1.03;;;0.40;;
8480;SDS011;4277;51.354;6.740;2024-03-29T12:35:08;1.33;;;0.50;;
8480;SDS011;4277;51.354;6.740;2024-03-29T12:37:34;0.53;;;0.30;;
8480;SDS011;4277;51.354;6.740;2024-03-29T12:40:00;1.20;;;0.47;;
8480;SDS011;4277;51.354;6.740;2024-03-29T12:42:30;0.67;;;0.50;;
8480;SDS011;4277;51.354;6.740;2024-03-29T12:44:56;0.97;;;0.40;;
8480;SDS011;4277;51.354;6.740;2024-03-29T12:47:22;1.13;;;0.50;;
8480;SDS011;4277;51.354;6.740;2024-03-29T12:49:48;0.60;;;0.40;;
8480;SDS011;4277;51.354;6.740;2024-03-29T12:52:14;0.60;;;0.60;;
8480;SDS011;4277;51.354;6.740;2024-03-29T12:54:40;1.20;;;0.40;;
8480;SDS011;4277;51.354;6.740;2024-03-29T12:57:05;2.83;;;0.47;;
8480;SDS011;4277;51.354;6.740;2024-03-29T12:59:34;1.90;;;0.40;;
8480;SDS011;4277;51.354;6.740;2024-03-29T13:02:00;0.90;;;0.40;;
8480;SDS011;4277;51.354;6.740;2024-03-29T13:04:29;0.63;;;0.40;;
8480;SDS011;4277;51.354;6.740;2024-03-29T13:06:55;0.50;;;0.40;;
8480;SDS011;4277;51.354;6.740;2024-03-29T13:09:20;0.60;;;0.20;;
8480;SDS011;4277;51.354;6.740;2024-03-29T13:11:46;0.97;;;0.30;;
8480;SDS011;4277;51.354;6.740;2024-03-29T13:14:13;0.67;;;0.30;;
8480;SDS011;4277;51.354;6.740;2024-03-29T13:16:38;2.30;;;0.47;;
8480;SDS011;4277;51.354;6.740;2024-03-29T13:19:05;1.47;;;0.67;;
8480;SDS011;4277;51.354;6.740;2024-03-29T13:21:31;1.63;;;0.50;;
8480;SDS011;4277;51.354;6.740;2024-03-29T13:23:57;0.73;;;0.43;;
8480;SDS011;4277;51.354;6.740;2024-03-29T13:26:23;1.07;;;0.60;;
8480;SDS011;4277;51.354;6.740;2024-03-29T13:28:49;3.57;;;0.57;;
8480;SDS011;4277;51.354;6.740;2024-03-29T13:31:15;4.27;;;0.53;;
8480;SDS011;4277;51.354;6.740;2024-03-29T13:33:41;1.10;;;0.40;;
8480;SDS011;4277;51.354;6.740;2024-03-29T13:36:07;1.13;;;0.50;;
8480;SDS011;4277;51.354;6.740;2024-03-29T13:38:33;0.57;;;0.30;;
8480;SDS011;4277;51.354;6.740;2024-03-29T13:40:59;1.87;;;0.30;;
8480;SDS011;4277;51.354;6.740;2024-03-29T13:43:24;1.73;;;0.23;;
8480;SDS011;4277;51.354;6.740;2024-03-29T13:45:51;0.70;;;0.30;;
8480;SDS011;4277;51.354;6.740;2024-03-29T13:48:18;0.80;;;0.20;;
8480;SDS011;4277;51.354;6.740;2024-03-29T13:50:44;0.63;;;0.30;;
8480;SDS011;4277;51.354;6.740;2024-03-29T13:53:10;2.20;;;0.50;;
8480;SDS011;4277;51.354;6.740;2024-03-29T13:55:38;1.77;;;0.50;;
8480;SDS011;4277;51.354;6.740;2024-03-29T13:58:04;0.53;;;0.20;;
8480;SDS011;4277;51.354;6.740;2024-03-29T14:00:29;0.33;;;0.20;;
8480;SDS011;4277;51.354;6.740;2024-03-29T14:02:56;0.70;;;0.40;;
8480;SDS011;4277;51.354;6.740;2024-03-29T14:05:22;2.07;;;0.37;;
8480;SDS011;4277;51.354;6.740;2024-03-29T14:07:48;0.70;;;0.40;;
8480;SDS011;4277;51.354;6.740;2024-03-29T14:10:15;0.67;;;0.40;;
8480;SDS011;4277;51.354;6.740;2024-03-29T14:12:41;0.87;;;0.33;;
8480;SDS011;4277;51.354;6.740;2024-03-29T14:15:07;1.03;;;0.30;;
8480;SDS011;4277;51.354;6.740;2024-03-29T14:17:34;0.73;;;0.30;;
8480;SDS011;4277;51.354;6.740;2024-03-29T14:20:00;1.00;;;0.50;;
8480;SDS011;4277;51.354;6.740;2024-03-29T14:22:26;1.30;;;0.30;;
8480;SDS011;4277;51.354;6.740;2024-03-29T14:24:54;0.73;;;0.40;;
8480;SDS011;4277;51.354;6.740;2024-03-29T14:27:20;4.03;;;0.60;;
8480;SDS011;4277;51.354;6.740;2024-03-29T14:29:49;0.37;;;0.20;;
8480;SDS011;4277;51.354;6.740;2024-03-29T14:32:14;0.52;;;0.30;;
8480;SDS011;4277;51.354;6.740;2024-03-29T14:34:40;1.38;;;0.30;;
8480;SDS011;4277;51.354;6.740;2024-03-29T14:37:11;2.67;;;0.40;;
8480;SDS011;4277;51.354;6.740;2024-03-29T14:39:38;0.35;;;0.25;;
8480;SDS011;4277;51.354;6.740;2024-03-29T14:42:07;0.93;;;0.32;;
8480;SDS011;4277;51.354;6.740;2024-03-29T14:44:34;0.45;;;0.25;;
8480;SDS011;4277;51.354;6.740;2024-03-29T14:47:00;0.38;;;0.30;;
8480;SDS011;4277;51.354;6.740;2024-03-29T14:49:25;1.00;;;0.40;;
8480;SDS011;4277;51.354;6.740;2024-03-29T14:51:52;1.13;;;0.40;;
8480;SDS011;4277;51.354;6.740;2024-03-29T14:54:17;0.57;;;0.20;;
8480;SDS011;4277;51.354;6.740;2024-03-29T14:56:43;0.35;;;0.15;;
8480;SDS011;4277;51.354;6.740;2024-03-29T14:59:10;0.70;;;0.20;;
8480;SDS011;4277;51.354;6.740;2024-03-29T15:01:37;0.30;;;0.30;;
8480;SDS011;4277;51.354;6.740;2024-03-29T15:04:03;0.43;;;0.20;;
8480;SDS011;4277;51.354;6.740;2024-03-29T15:06:28;0.30;;;0.20;;
8480;SDS011;4277;51.354;6.740;2024-03-29T15:08:54;1.85;;;0.20;;
8480;SDS011;4277;51.354;6.740;2024-03-29T15:11:22;0.20;;;0.20;;
8480;SDS011;4277;51.354;6.740;2024-03-29T15:13:48;0.20;;;0.15;;
8480;SDS011;4277;51.354;6.740;2024-03-29T15:16:15;0.70;;;0.30;;